createdAt,value
2022-10-16T00:00:03.650Z,0.00
2022-10-16T00:01:03.635Z,0.00
2022-10-16T00:02:03.667Z,0.00
2022-10-16T00:03:03.612Z,0.00
2022-10-16T00:04:03.594Z,0.00
2022-10-16T00:05:03.577Z,0.00
2022-10-16T00:06:03.570Z,0.00
2022-10-16T00:07:03.548Z,0.00
2022-10-16T00:08:03.532Z,0.00
2022-10-16T00:09:03.526Z,0.00
2022-10-16T00:10:03.502Z,0.00
2022-10-16T00:11:03.491Z,0.00
2022-10-16T00:12:03.475Z,0.00
2022-10-16T00:13:03.478Z,0.00
2022-10-16T00:14:03.479Z,0.00
2022-10-16T00:15:03.443Z,0.00
2022-10-16T00:16:03.425Z,0.00
2022-10-16T00:17:03.417Z,0.00
2022-10-16T00:18:03.403Z,0.00
2022-10-16T00:19:03.388Z,0.00
2022-10-16T00:20:03.372Z,0.00
2022-10-16T00:21:03.373Z,0.00
2022-10-16T00:22:03.338Z,0.00
2022-10-16T00:23:03.335Z,0.00
2022-10-16T00:24:03.313Z,0.00
2022-10-16T00:25:03.309Z,0.00
2022-10-16T00:26:03.290Z,0.00
2022-10-16T00:27:03.284Z,0.00
2022-10-16T00:28:03.265Z,0.00
2022-10-16T00:29:03.365Z,0.00
2022-10-16T00:30:03.254Z,0.00
2022-10-16T00:31:03.229Z,0.00
2022-10-16T00:32:03.205Z,0.00
2022-10-16T00:33:03.194Z,0.00
2022-10-16T00:34:03.188Z,0.00
2022-10-16T00:35:03.166Z,0.00
2022-10-16T00:36:03.152Z,0.00
2022-10-16T00:37:03.143Z,0.00
2022-10-16T00:38:03.128Z,0.00
2022-10-16T00:39:03.363Z,0.00
2022-10-16T00:40:03.108Z,0.00
2022-10-16T00:41:03.090Z,0.00
2022-10-16T00:42:03.076Z,0.00
2022-10-16T00:43:03.064Z,0.00
2022-10-16T00:44:03.044Z,0.00
2022-10-16T00:45:03.032Z,0.00
2022-10-16T00:46:03.034Z,0.00
2022-10-16T00:47:03.003Z,0.00
2022-10-16T00:48:03.006Z,0.00
2022-10-16T00:49:02.980Z,0.00
2022-10-16T00:50:02.963Z,0.00
2022-10-16T00:51:02.951Z,0.00
2022-10-16T00:52:02.938Z,0.00
2022-10-16T00:53:02.928Z,0.00
2022-10-16T00:54:02.919Z,0.00
2022-10-16T00:55:02.901Z,0.00
2022-10-16T00:56:02.884Z,0.00
2022-10-16T00:57:02.939Z,0.00
2022-10-16T00:58:02.856Z,0.00
2022-10-16T00:59:03.264Z,0.00
2022-10-16T01:00:03.254Z,0.00
2022-10-16T01:01:02.879Z,0.00
2022-10-16T01:02:02.824Z,0.00
2022-10-16T01:03:02.792Z,0.00
2022-10-16T01:04:02.774Z,0.00
2022-10-16T01:05:02.772Z,0.00
2022-10-16T01:06:02.748Z,0.00
2022-10-16T01:07:02.738Z,0.00
2022-10-16T01:08:02.722Z,0.00
2022-10-16T01:09:02.713Z,0.00
2022-10-16T01:10:02.690Z,0.00
2022-10-16T01:11:02.682Z,0.00
2022-10-16T01:12:02.670Z,0.00
2022-10-16T01:13:02.651Z,0.00
2022-10-16T01:14:02.633Z,0.00
2022-10-16T01:15:02.629Z,0.00
2022-10-16T01:16:02.611Z,0.00
2022-10-16T01:17:02.603Z,0.00
2022-10-16T01:18:02.607Z,0.00
2022-10-16T01:19:02.577Z,0.00
2022-10-16T01:20:02.558Z,0.00
2022-10-16T01:21:02.550Z,0.00
2022-10-16T01:22:02.530Z,0.00
2022-10-16T01:23:02.519Z,0.00
2022-10-16T01:24:02.499Z,0.00
2022-10-16T01:25:02.485Z,0.00
2022-10-16T01:26:02.471Z,0.00
2022-10-16T01:27:02.461Z,0.00
2022-10-16T01:28:02.447Z,0.00
2022-10-16T01:29:02.547Z,0.00
2022-10-16T01:30:02.422Z,0.00
2022-10-16T01:31:02.413Z,0.00
2022-10-16T01:32:02.391Z,0.00
2022-10-16T01:33:02.377Z,0.00
2022-10-16T01:34:02.385Z,0.00
2022-10-16T01:35:02.348Z,0.00
2022-10-16T01:36:02.333Z,0.00
2022-10-16T01:37:02.323Z,0.00
2022-10-16T01:38:02.304Z,0.00
2022-10-16T01:39:02.306Z,0.00
2022-10-16T01:40:02.275Z,0.00
2022-10-16T01:41:02.270Z,0.00
2022-10-16T01:42:02.265Z,0.00
2022-10-16T01:43:02.295Z,0.00
2022-10-16T01:44:02.231Z,0.00
2022-10-16T01:45:02.227Z,0.00
2022-10-16T01:46:02.200Z,0.00
2022-10-16T01:47:02.191Z,0.00
2022-10-16T01:48:02.172Z,0.00
2022-10-16T01:49:02.155Z,0.00
2022-10-16T01:50:02.158Z,0.00
2022-10-16T01:51:02.125Z,0.00
2022-10-16T01:52:02.154Z,0.00
2022-10-16T01:53:02.101Z,0.00
2022-10-16T01:54:02.083Z,0.00
2022-10-16T01:55:02.122Z,0.00
2022-10-16T01:56:02.057Z,0.00
2022-10-16T01:57:02.051Z,0.00
2022-10-16T01:58:02.030Z,0.00
2022-10-16T01:59:02.022Z,0.00
2022-10-16T02:00:02.005Z,0.00
2022-10-16T02:01:02.092Z,0.00
2022-10-16T02:02:01.971Z,0.00
2022-10-16T02:03:01.960Z,0.00
2022-10-16T02:04:01.944Z,0.00
2022-10-16T02:05:01.938Z,0.00
2022-10-16T02:06:01.944Z,0.00
2022-10-16T02:07:01.923Z,0.00
2022-10-16T02:08:04.777Z,0.00
2022-10-16T02:09:01.878Z,0.00
2022-10-16T02:10:01.867Z,0.00
2022-10-16T02:11:01.856Z,0.00
2022-10-16T02:12:01.846Z,0.00
2022-10-16T02:13:01.830Z,0.00
2022-10-16T02:14:01.812Z,0.00
2022-10-16T02:15:01.797Z,0.00
2022-10-16T02:16:01.783Z,0.00
2022-10-16T02:17:01.766Z,0.00
2022-10-16T02:18:01.757Z,0.00
2022-10-16T02:19:01.742Z,0.00
2022-10-16T02:20:01.731Z,0.00
2022-10-16T02:21:01.709Z,0.00
2022-10-16T02:22:01.727Z,0.00
2022-10-16T02:23:01.684Z,0.00
2022-10-16T02:24:01.679Z,0.00
2022-10-16T02:25:01.665Z,0.00
2022-10-16T02:26:01.652Z,0.00
2022-10-16T02:27:01.640Z,0.00
2022-10-16T02:28:01.624Z,0.00
2022-10-16T02:29:01.616Z,0.00
2022-10-16T02:30:01.603Z,0.00
2022-10-16T02:31:01.581Z,0.00
2022-10-16T02:32:01.566Z,0.00
2022-10-16T02:33:01.555Z,0.00
2022-10-16T02:34:01.549Z,0.00
2022-10-16T02:35:01.527Z,0.00
2022-10-16T02:36:01.516Z,0.00
2022-10-16T02:37:01.493Z,0.00
2022-10-16T02:38:01.559Z,0.00
2022-10-16T02:39:01.471Z,0.00
2022-10-16T02:40:01.454Z,0.00
2022-10-16T02:41:01.442Z,0.00
2022-10-16T02:42:01.432Z,0.00
2022-10-16T02:43:01.414Z,0.00
2022-10-16T02:44:01.402Z,0.00
2022-10-16T02:45:01.405Z,0.00
2022-10-16T02:46:01.378Z,0.00
2022-10-16T02:47:01.410Z,0.00
2022-10-16T02:48:01.352Z,0.00
2022-10-16T02:49:01.340Z,0.00
2022-10-16T02:50:01.327Z,0.00
2022-10-16T02:51:01.308Z,0.00
2022-10-16T02:52:01.302Z,0.00
2022-10-16T02:53:01.276Z,0.00
2022-10-16T02:54:01.291Z,0.00
2022-10-16T02:55:01.252Z,0.00
2022-10-16T02:56:01.244Z,0.00
2022-10-16T02:57:01.227Z,0.00
2022-10-16T02:58:01.226Z,0.00
2022-10-16T02:59:01.196Z,0.00
2022-10-16T03:00:01.187Z,0.00
2022-10-16T03:01:01.244Z,0.00
2022-10-16T03:02:01.170Z,0.00
2022-10-16T03:03:01.147Z,0.00
2022-10-16T03:04:01.136Z,0.00
2022-10-16T03:05:01.118Z,0.00
2022-10-16T03:06:01.104Z,0.00
2022-10-16T03:07:01.091Z,0.00
2022-10-16T03:08:01.082Z,0.00
2022-10-16T03:09:01.062Z,0.00
2022-10-16T03:10:01.074Z,0.00
2022-10-16T03:11:01.033Z,0.00
2022-10-16T03:12:01.024Z,0.00
2022-10-16T03:13:01.005Z,0.00
2022-10-16T03:14:00.996Z,0.00
2022-10-16T03:15:00.979Z,0.00
2022-10-16T03:16:00.976Z,0.00
2022-10-16T03:17:00.951Z,0.00
2022-10-16T03:18:00.942Z,0.00
2022-10-16T03:19:00.923Z,0.00
2022-10-16T03:20:00.920Z,0.00
2022-10-16T03:21:00.902Z,0.00
2022-10-16T03:22:00.893Z,0.00
2022-10-16T03:23:00.876Z,0.00
2022-10-16T03:24:00.861Z,0.00
2022-10-16T03:25:00.847Z,0.00
2022-10-16T03:26:00.859Z,0.00
2022-10-16T03:27:00.821Z,0.00
2022-10-16T03:28:00.804Z,0.00
2022-10-16T03:29:00.862Z,0.00
2022-10-16T03:30:00.778Z,0.00
2022-10-16T03:31:00.761Z,0.00
2022-10-16T03:32:00.757Z,0.00
2022-10-16T03:33:00.736Z,0.00
2022-10-16T03:34:00.725Z,0.00
2022-10-16T03:35:00.708Z,0.00
2022-10-16T03:36:00.703Z,0.00
2022-10-16T03:37:00.680Z,0.00
2022-10-16T03:38:00.671Z,0.00
2022-10-16T03:39:00.654Z,0.00
2022-10-16T03:40:00.644Z,0.00
2022-10-16T03:41:00.638Z,0.00
2022-10-16T03:42:00.644Z,0.00
2022-10-16T03:43:00.602Z,0.00
2022-10-16T03:44:00.595Z,0.00
2022-10-16T03:45:00.576Z,0.00
2022-10-16T03:46:00.565Z,0.00
2022-10-16T03:47:00.554Z,0.00
2022-10-16T03:48:00.540Z,0.00
2022-10-16T03:49:00.516Z,0.00
2022-10-16T03:50:00.512Z,0.00
2022-10-16T03:51:00.496Z,0.00
2022-10-16T03:52:00.479Z,0.00
2022-10-16T03:53:00.469Z,0.00
2022-10-16T03:54:00.457Z,0.00
2022-10-16T03:55:00.444Z,0.00
2022-10-16T03:56:00.428Z,0.00
2022-10-16T03:57:00.412Z,0.00
2022-10-16T03:58:00.427Z,0.00
2022-10-16T03:59:00.392Z,0.00
2022-10-16T04:00:00.374Z,0.00
2022-10-16T04:01:00.444Z,0.00
2022-10-16T04:02:00.343Z,0.00
2022-10-16T04:03:00.334Z,0.00
2022-10-16T04:04:00.319Z,0.00
2022-10-16T04:05:00.300Z,0.00
2022-10-16T04:06:00.297Z,0.00
2022-10-16T04:07:00.277Z,0.00
2022-10-16T04:08:00.262Z,0.00
2022-10-16T04:09:00.252Z,0.00
2022-10-16T04:10:00.260Z,0.00
2022-10-16T04:11:00.227Z,0.00
2022-10-16T04:12:00.206Z,0.00
2022-10-16T04:13:00.194Z,0.00
2022-10-16T04:14:00.198Z,0.00
2022-10-16T04:15:00.194Z,0.00
2022-10-16T04:16:00.149Z,0.00
2022-10-16T04:17:00.141Z,0.00
2022-10-16T04:18:00.131Z,0.00
2022-10-16T04:19:00.111Z,0.00
2022-10-16T04:20:00.105Z,0.00
2022-10-16T04:21:00.095Z,0.00
2022-10-16T04:22:00.091Z,0.00
2022-10-16T04:23:00.092Z,0.00
2022-10-16T04:24:00.063Z,0.00
2022-10-16T04:25:00.038Z,0.00
2022-10-16T04:26:00.021Z,0.00
2022-10-16T04:27:00.011Z,0.00
2022-10-16T04:27:59.989Z,0.00
2022-10-16T04:29:00.097Z,0.00
2022-10-16T04:29:59.987Z,0.00
2022-10-16T04:30:59.943Z,0.00
2022-10-16T04:31:59.930Z,0.00
2022-10-16T04:33:59.909Z,0.00
2022-10-16T04:34:59.895Z,0.00
2022-10-16T04:35:59.874Z,0.00
2022-10-16T04:36:59.869Z,0.00
2022-10-16T04:37:59.855Z,0.00
2022-10-16T04:38:59.845Z,0.00
2022-10-16T04:39:59.827Z,0.00
2022-10-16T04:40:59.808Z,0.00
2022-10-16T04:41:59.791Z,0.00
2022-10-16T04:42:59.780Z,0.00
2022-10-16T04:43:59.762Z,0.00
2022-10-16T04:44:59.756Z,0.00
2022-10-16T04:45:59.763Z,0.00
2022-10-16T04:46:59.737Z,0.00
2022-10-16T04:47:59.718Z,0.00
2022-10-16T04:48:59.704Z,0.00
2022-10-16T04:49:59.684Z,0.00
2022-10-16T04:50:59.679Z,0.00
2022-10-16T04:51:59.658Z,0.00
2022-10-16T04:52:59.648Z,0.00
2022-10-16T04:53:59.626Z,0.00
2022-10-16T04:54:59.617Z,0.00
2022-10-16T04:55:59.598Z,0.00
2022-10-16T04:56:59.587Z,0.00
2022-10-16T04:57:59.573Z,0.00
2022-10-16T04:58:59.562Z,0.00
2022-10-16T04:59:59.595Z,0.00
2022-10-16T05:00:59.595Z,0.00
2022-10-16T05:01:59.551Z,0.00
2022-10-16T05:02:59.543Z,0.00
2022-10-16T05:03:59.499Z,0.00
2022-10-16T05:04:59.484Z,0.00
2022-10-16T05:05:59.481Z,0.00
2022-10-16T05:06:59.452Z,0.00
2022-10-16T05:07:59.439Z,0.00
2022-10-16T05:08:59.426Z,0.00
2022-10-16T05:09:59.407Z,0.00
2022-10-16T05:10:59.401Z,0.00
2022-10-16T05:11:59.381Z,0.00
2022-10-16T05:12:59.371Z,0.00
2022-10-16T05:13:59.471Z,0.00
2022-10-16T05:14:59.798Z,0.00
2022-10-16T05:15:59.333Z,0.00
2022-10-16T05:16:59.316Z,0.00
2022-10-16T05:17:59.324Z,0.00
2022-10-16T05:19:22.519Z,0.00
2022-10-16T05:20:00.298Z,0.00
2022-10-16T05:20:59.268Z,0.00
2022-10-16T05:21:59.241Z,0.00
2022-10-16T05:22:59.330Z,0.00
2022-10-16T05:23:59.314Z,0.00
2022-10-16T05:24:59.295Z,0.00
2022-10-16T05:25:59.332Z,0.00
2022-10-16T05:26:59.311Z,0.00
2022-10-16T05:27:59.229Z,0.00
2022-10-16T05:28:59.261Z,0.00
2022-10-16T05:29:59.153Z,0.00
2022-10-16T05:30:59.136Z,0.00
2022-10-16T05:31:59.148Z,0.00
2022-10-16T05:32:59.093Z,0.00
2022-10-16T05:33:59.102Z,0.00
2022-10-16T05:34:59.067Z,0.00
2022-10-16T05:35:59.051Z,0.00
2022-10-16T05:36:59.041Z,0.00
2022-10-16T05:37:59.026Z,5.62
2022-10-16T05:38:59.016Z,5.62
2022-10-16T05:39:58.993Z,5.62
2022-10-16T05:40:58.996Z,5.62
2022-10-16T05:41:58.976Z,5.62
2022-10-16T05:42:59.016Z,5.62
2022-10-16T05:43:58.945Z,5.62
2022-10-16T05:44:58.936Z,11.25
2022-10-16T05:45:58.918Z,11.25
2022-10-16T05:46:58.904Z,11.25
2022-10-16T05:47:58.884Z,11.25
2022-10-16T05:48:58.882Z,16.88
2022-10-16T05:49:58.881Z,16.88
2022-10-16T05:50:58.852Z,16.88
2022-10-16T05:51:58.840Z,22.50
2022-10-16T05:52:58.827Z,22.50
2022-10-16T05:53:58.816Z,28.12
2022-10-16T05:54:58.796Z,28.12
2022-10-16T05:55:58.777Z,33.75
2022-10-16T05:56:58.764Z,39.38
2022-10-16T05:57:58.744Z,45.00
2022-10-16T05:58:58.737Z,50.62
2022-10-16T05:59:58.740Z,45.00
2022-10-16T06:00:58.751Z,45.00
2022-10-16T06:01:58.838Z,39.38
2022-10-16T06:02:58.681Z,39.38
2022-10-16T06:03:58.711Z,45.00
2022-10-16T06:04:58.654Z,45.00
2022-10-16T06:05:58.661Z,50.62
2022-10-16T06:06:58.631Z,50.62
2022-10-16T06:07:58.610Z,56.25
2022-10-16T06:08:58.604Z,61.88
2022-10-16T06:09:58.585Z,61.88
2022-10-16T06:10:58.573Z,67.50
2022-10-16T06:11:58.560Z,67.50
2022-10-16T06:12:58.552Z,73.12
2022-10-16T06:13:58.526Z,73.12
2022-10-16T06:14:58.519Z,73.12
2022-10-16T06:15:58.498Z,84.38
2022-10-16T06:16:58.492Z,95.62
2022-10-16T06:17:58.473Z,84.38
2022-10-16T06:18:58.462Z,78.75
2022-10-16T06:19:58.447Z,78.75
2022-10-16T06:20:58.435Z,84.38
2022-10-16T06:21:58.439Z,90.00
2022-10-16T06:22:58.405Z,95.62
2022-10-16T06:23:58.387Z,101.25
2022-10-16T06:24:58.377Z,106.88
2022-10-16T06:25:58.362Z,112.50
2022-10-16T06:26:58.353Z,118.12
2022-10-16T06:27:58.339Z,123.75
2022-10-16T06:28:58.562Z,129.38
2022-10-16T06:29:58.307Z,135.00
2022-10-16T06:30:58.294Z,140.62
2022-10-16T06:31:58.285Z,151.88
2022-10-16T06:32:58.282Z,157.50
2022-10-16T06:33:58.256Z,168.75
2022-10-16T06:34:58.245Z,180.00
2022-10-16T06:35:58.227Z,191.25
2022-10-16T06:36:58.226Z,196.88
2022-10-16T06:37:58.222Z,191.25
2022-10-16T06:38:58.191Z,185.62
2022-10-16T06:39:58.172Z,168.75
2022-10-16T06:40:58.163Z,151.88
2022-10-16T06:41:58.150Z,151.88
2022-10-16T06:42:58.132Z,146.25
2022-10-16T06:43:58.120Z,140.62
2022-10-16T06:44:58.105Z,140.62
2022-10-16T06:45:58.090Z,146.25
2022-10-16T06:46:58.083Z,151.88
2022-10-16T06:47:58.068Z,151.88
2022-10-16T06:48:58.054Z,151.88
2022-10-16T06:49:58.037Z,140.62
2022-10-16T06:50:58.104Z,135.00
2022-10-16T06:51:58.013Z,123.75
2022-10-16T06:52:58.005Z,118.12
2022-10-16T06:54:05.256Z,112.50
2022-10-16T06:54:59.000Z,112.50
2022-10-16T06:55:57.961Z,118.12
2022-10-16T06:56:57.949Z,118.12
2022-10-16T06:57:57.929Z,123.75
2022-10-16T06:58:57.919Z,123.75
2022-10-16T06:59:57.902Z,123.75
2022-10-16T07:00:57.889Z,123.75
2022-10-16T07:01:57.870Z,129.38
2022-10-16T07:02:57.861Z,135.00
2022-10-16T07:03:57.846Z,135.00
2022-10-16T07:04:57.832Z,135.00
2022-10-16T07:05:57.816Z,140.62
2022-10-16T07:06:57.820Z,140.62
2022-10-16T07:07:57.791Z,146.25
2022-10-16T07:08:57.782Z,151.88
2022-10-16T07:09:57.787Z,151.88
2022-10-16T07:10:57.754Z,157.50
2022-10-16T07:11:57.739Z,168.75
2022-10-16T07:12:57.728Z,168.75
2022-10-16T07:13:57.712Z,168.75
2022-10-16T07:14:57.703Z,163.12
2022-10-16T07:15:57.688Z,157.50
2022-10-16T07:16:57.672Z,163.12
2022-10-16T07:17:57.652Z,163.12
2022-10-16T07:18:57.646Z,163.12
2022-10-16T07:19:57.627Z,168.75
2022-10-16T07:20:57.621Z,174.38
2022-10-16T07:21:57.610Z,180.00
2022-10-16T07:22:57.597Z,185.62
2022-10-16T07:23:57.575Z,196.88
2022-10-16T07:24:57.570Z,208.12
2022-10-16T07:25:57.572Z,213.75
2022-10-16T07:26:57.538Z,208.12
2022-10-16T07:27:57.521Z,202.50
2022-10-16T07:28:57.617Z,196.88
2022-10-16T07:29:57.496Z,185.62
2022-10-16T07:30:57.558Z,180.00
2022-10-16T07:31:57.466Z,168.75
2022-10-16T07:32:57.458Z,157.50
2022-10-16T07:33:57.442Z,146.25
2022-10-16T07:34:57.434Z,146.25
2022-10-16T07:35:57.410Z,151.88
2022-10-16T07:36:57.402Z,151.88
2022-10-16T07:37:57.383Z,157.50
2022-10-16T07:39:00.013Z,174.38
2022-10-16T07:39:57.367Z,185.62
2022-10-16T07:40:57.352Z,185.62
2022-10-16T07:41:57.352Z,191.25
2022-10-16T07:42:57.320Z,196.88
2022-10-16T07:43:57.312Z,196.88
2022-10-16T07:44:57.304Z,202.50
2022-10-16T07:45:59.037Z,202.50
2022-10-16T07:46:57.274Z,219.38
2022-10-16T07:47:57.251Z,241.88
2022-10-16T07:48:57.248Z,258.75
2022-10-16T07:49:57.232Z,275.62
2022-10-16T07:50:57.219Z,270.00
2022-10-16T07:51:57.202Z,270.00
2022-10-16T07:52:57.186Z,264.38
2022-10-16T07:53:57.173Z,258.75
2022-10-16T07:54:57.166Z,236.25
2022-10-16T07:55:57.142Z,213.75
2022-10-16T07:56:57.131Z,196.88
2022-10-16T07:57:57.135Z,191.25
2022-10-16T07:58:57.105Z,191.25
2022-10-16T07:59:57.084Z,191.25
2022-10-16T08:00:57.167Z,202.50
2022-10-16T08:01:57.061Z,208.12
2022-10-16T08:02:57.052Z,213.75
2022-10-16T08:03:57.062Z,208.12
2022-10-16T08:04:57.022Z,208.12
2022-10-16T08:05:57.006Z,208.12
2022-10-16T08:06:56.997Z,213.75
2022-10-16T08:07:56.975Z,225.00
2022-10-16T08:08:56.972Z,241.88
2022-10-16T08:09:56.957Z,264.38
2022-10-16T08:10:56.945Z,292.50
2022-10-16T08:12:02.011Z,320.62
2022-10-16T08:12:56.998Z,354.38
2022-10-16T08:13:56.917Z,343.12
2022-10-16T08:14:56.885Z,270.00
2022-10-16T08:15:56.868Z,264.38
2022-10-16T08:16:56.860Z,281.25
2022-10-16T08:17:56.891Z,309.38
2022-10-16T08:18:56.832Z,343.12
2022-10-16T08:19:56.814Z,376.88
2022-10-16T08:20:56.806Z,410.62
2022-10-16T08:21:56.792Z,444.38
2022-10-16T08:22:56.781Z,483.75
2022-10-16T08:23:58.296Z,472.50
2022-10-16T08:24:56.747Z,444.38
2022-10-16T08:25:56.747Z,427.50
2022-10-16T08:26:56.723Z,444.38
2022-10-16T08:27:56.711Z,483.75
2022-10-16T08:28:56.822Z,461.25
2022-10-16T08:29:56.704Z,416.25
2022-10-16T08:30:56.663Z,382.50
2022-10-16T08:31:56.653Z,354.38
2022-10-16T08:32:56.639Z,320.62
2022-10-16T08:33:56.629Z,292.50
2022-10-16T08:34:56.609Z,292.50
2022-10-16T08:35:56.598Z,298.12
2022-10-16T08:36:56.591Z,303.75
2022-10-16T08:37:56.579Z,315.00
2022-10-16T08:38:56.566Z,309.38
2022-10-16T08:39:56.549Z,309.38
2022-10-16T08:40:56.530Z,309.38
2022-10-16T08:41:56.524Z,303.75
2022-10-16T08:42:56.519Z,303.75
2022-10-16T08:43:56.504Z,303.75
2022-10-16T08:44:56.480Z,303.75
2022-10-16T08:45:56.492Z,309.38
2022-10-16T08:46:56.454Z,331.88
2022-10-16T08:47:56.438Z,337.50
2022-10-16T08:48:56.419Z,331.88
2022-10-16T08:49:56.415Z,326.25
2022-10-16T08:50:56.397Z,303.75
2022-10-16T08:51:56.389Z,286.88
2022-10-16T08:52:56.374Z,275.62
2022-10-16T08:53:56.358Z,264.38
2022-10-16T08:54:56.345Z,264.38
2022-10-16T08:55:56.331Z,253.12
2022-10-16T08:56:56.312Z,247.50
2022-10-16T08:57:56.308Z,253.12
2022-10-16T08:58:59.978Z,253.12
2022-10-16T08:59:56.282Z,258.75
2022-10-16T09:00:56.383Z,270.00
2022-10-16T09:01:56.270Z,264.38
2022-10-16T09:02:56.230Z,264.38
2022-10-16T09:03:56.222Z,270.00
2022-10-16T09:04:56.899Z,286.88
2022-10-16T09:05:56.193Z,309.38
2022-10-16T09:06:56.179Z,343.12
2022-10-16T09:07:56.203Z,371.25
2022-10-16T09:08:56.348Z,399.38
2022-10-16T09:09:56.137Z,410.62
2022-10-16T09:10:56.122Z,444.38
2022-10-16T09:11:56.115Z,495.00
2022-10-16T09:12:56.099Z,601.88
2022-10-16T09:13:56.141Z,669.38
2022-10-16T09:14:56.077Z,646.88
2022-10-16T09:15:56.057Z,658.12
2022-10-16T09:16:56.080Z,725.62
2022-10-16T09:17:56.059Z,748.12
2022-10-16T09:18:56.020Z,663.75
2022-10-16T09:19:56.008Z,652.50
2022-10-16T09:20:55.991Z,506.25
2022-10-16T09:21:55.981Z,489.38
2022-10-16T09:22:55.960Z,736.88
2022-10-16T09:23:55.957Z,770.62
2022-10-16T09:24:55.936Z,776.25
2022-10-16T09:25:55.924Z,759.38
2022-10-16T09:26:55.907Z,697.50
2022-10-16T09:27:55.897Z,551.25
2022-10-16T09:28:55.977Z,511.88
2022-10-16T09:29:58.956Z,500.62
2022-10-16T09:30:55.855Z,500.62
2022-10-16T09:31:55.844Z,506.25
2022-10-16T09:32:55.827Z,528.75
2022-10-16T09:33:55.845Z,742.50
2022-10-16T09:34:55.805Z,720.00
2022-10-16T09:35:55.797Z,691.88
2022-10-16T09:36:55.780Z,624.38
2022-10-16T09:37:55.766Z,573.75
2022-10-16T09:38:55.750Z,466.88
2022-10-16T09:39:55.739Z,376.88
2022-10-16T09:40:59.335Z,320.62
2022-10-16T09:41:56.729Z,309.38
2022-10-16T09:42:55.693Z,320.62
2022-10-16T09:43:55.682Z,315.00
2022-10-16T09:44:55.667Z,303.75
2022-10-16T09:45:55.656Z,309.38
2022-10-16T09:46:55.638Z,315.00
2022-10-16T09:47:57.864Z,309.38
2022-10-16T09:48:55.615Z,286.88
2022-10-16T09:49:55.627Z,337.50
2022-10-16T09:50:55.590Z,292.50
2022-10-16T09:51:55.580Z,298.12
2022-10-16T09:52:55.563Z,315.00
2022-10-16T09:53:55.562Z,343.12
2022-10-16T09:54:55.536Z,382.50
2022-10-16T09:55:55.528Z,393.75
2022-10-16T09:56:55.505Z,388.12
2022-10-16T09:57:55.498Z,382.50
2022-10-16T09:58:55.485Z,365.62
2022-10-16T09:59:55.467Z,343.12
2022-10-16T10:00:55.453Z,320.62
2022-10-16T10:01:55.446Z,315.00
2022-10-16T10:03:55.422Z,309.38
2022-10-16T10:04:55.422Z,354.38
2022-10-16T10:05:58.513Z,343.12
2022-10-16T10:06:55.383Z,354.38
2022-10-16T10:07:55.369Z,348.75
2022-10-16T10:08:55.346Z,365.62
2022-10-16T10:09:55.336Z,388.12
2022-10-16T10:10:55.319Z,410.62
2022-10-16T10:11:55.407Z,506.25
2022-10-16T10:12:55.293Z,556.88
2022-10-16T10:13:55.282Z,663.75
2022-10-16T10:14:55.268Z,731.25
2022-10-16T10:15:55.263Z,646.88
2022-10-16T10:16:55.244Z,646.88
2022-10-16T10:17:55.230Z,658.12
2022-10-16T10:18:55.215Z,669.38
2022-10-16T10:19:55.204Z,669.38
2022-10-16T10:20:55.219Z,658.12
2022-10-16T10:21:55.200Z,680.62
2022-10-16T10:22:55.161Z,697.50
2022-10-16T10:23:55.147Z,708.75
2022-10-16T10:24:55.129Z,703.12
2022-10-16T10:25:55.119Z,787.50
2022-10-16T10:26:55.103Z,686.25
2022-10-16T10:27:55.095Z,956.25
2022-10-16T10:28:55.114Z,1569.38
2022-10-16T10:29:55.072Z,1738.12
2022-10-16T10:30:55.052Z,1552.50
2022-10-16T10:31:55.045Z,1181.25
2022-10-16T10:32:55.025Z,939.38
2022-10-16T10:33:55.017Z,1383.75
2022-10-16T10:34:56.702Z,1631.25
2022-10-16T10:35:54.987Z,1361.25
2022-10-16T10:36:54.976Z,1338.75
2022-10-16T10:37:54.987Z,495.00
2022-10-16T10:38:54.950Z,320.62
2022-10-16T10:39:54.941Z,303.75
2022-10-16T10:40:54.923Z,298.12
2022-10-16T10:41:54.916Z,354.38
2022-10-16T10:42:54.897Z,421.88
2022-10-16T10:43:54.888Z,388.12
2022-10-16T10:44:54.868Z,376.88
2022-10-16T10:45:54.864Z,320.62
2022-10-16T10:46:54.839Z,315.00
2022-10-16T10:47:54.832Z,343.12
2022-10-16T10:48:54.814Z,337.50
2022-10-16T10:49:54.805Z,303.75
2022-10-16T10:50:54.789Z,303.75
2022-10-16T10:51:54.778Z,303.75
2022-10-16T10:52:54.763Z,320.62
2022-10-16T10:53:54.779Z,365.62
2022-10-16T10:54:54.735Z,421.88
2022-10-16T10:55:54.732Z,337.50
2022-10-16T10:56:54.712Z,405.00
2022-10-16T10:57:54.706Z,601.88
2022-10-16T10:58:54.684Z,855.00
2022-10-16T10:59:54.672Z,905.62
2022-10-16T11:00:54.659Z,736.88
2022-10-16T11:01:54.677Z,877.50
2022-10-16T11:02:54.625Z,630.00
2022-10-16T11:03:58.472Z,635.62
2022-10-16T11:04:54.605Z,708.75
2022-10-16T11:05:54.594Z,663.75
2022-10-16T11:06:54.575Z,720.00
2022-10-16T11:07:54.575Z,905.62
2022-10-16T11:08:57.628Z,1248.75
2022-10-16T11:09:55.579Z,1051.88
2022-10-16T11:10:54.520Z,1288.12
2022-10-16T11:11:54.509Z,1648.12
2022-10-16T11:12:54.496Z,1361.25
2022-10-16T11:13:54.483Z,1333.12
2022-10-16T11:14:54.469Z,1147.50
2022-10-16T11:15:54.459Z,652.50
2022-10-16T11:16:54.441Z,585.00
2022-10-16T11:17:54.432Z,590.62
2022-10-16T11:18:54.419Z,635.62
2022-10-16T11:19:54.411Z,849.38
2022-10-16T11:20:54.392Z,1018.12
2022-10-16T11:21:54.385Z,1260.00
2022-10-16T11:22:54.363Z,1406.25
2022-10-16T11:23:54.359Z,1586.25
2022-10-16T11:24:54.400Z,1575.00
2022-10-16T11:25:54.347Z,1794.38
2022-10-16T11:26:54.309Z,1805.62
2022-10-16T11:27:54.306Z,1535.62
2022-10-16T11:28:54.361Z,1569.38
2022-10-16T11:29:54.275Z,1715.62
2022-10-16T11:30:54.257Z,1687.50
2022-10-16T11:31:54.248Z,1833.75
2022-10-16T11:32:54.233Z,1850.62
2022-10-16T11:33:54.287Z,1850.62
2022-10-16T11:34:54.217Z,1935.00
2022-10-16T11:35:54.203Z,1946.25
2022-10-16T11:36:54.197Z,1918.12
2022-10-16T11:37:54.175Z,1845.00
2022-10-16T11:38:54.152Z,1800.00
2022-10-16T11:39:54.151Z,1766.25
2022-10-16T11:40:54.134Z,1721.25
2022-10-16T11:41:54.149Z,1698.75
2022-10-16T11:42:54.110Z,1749.38
2022-10-16T11:43:54.101Z,1653.75
2022-10-16T11:44:54.084Z,1423.12
2022-10-16T11:45:54.082Z,1305.00
2022-10-16T11:47:00.765Z,1215.00
2022-10-16T11:47:59.251Z,1344.38
2022-10-16T11:48:54.036Z,1530.00
2022-10-16T11:49:54.023Z,1884.38
2022-10-16T11:50:54.004Z,1985.62
2022-10-16T11:51:54.000Z,1918.12
2022-10-16T11:52:53.979Z,1906.88
2022-10-16T11:53:53.970Z,1985.62
2022-10-16T11:54:53.954Z,2030.62
2022-10-16T11:55:53.947Z,1968.75
2022-10-16T11:56:53.935Z,1822.50
2022-10-16T11:57:53.945Z,1895.62
2022-10-16T11:58:53.911Z,2075.62
2022-10-16T11:59:53.903Z,1991.25
2022-10-16T12:00:53.893Z,1845.00
2022-10-16T12:01:53.873Z,1811.25
2022-10-16T12:02:53.861Z,1805.62
2022-10-16T12:03:53.913Z,1800.00
2022-10-16T12:04:53.841Z,1856.25
2022-10-16T12:05:53.821Z,1704.38
2022-10-16T12:06:53.806Z,1479.38
2022-10-16T12:07:53.804Z,1681.88
2022-10-16T12:08:53.789Z,1485.00
2022-10-16T12:09:53.775Z,556.88
2022-10-16T12:10:53.760Z,1260.00
2022-10-16T12:11:53.755Z,596.25
2022-10-16T12:12:53.733Z,691.88
2022-10-16T12:13:53.747Z,877.50
2022-10-16T12:15:14.741Z,928.12
2022-10-16T12:15:59.025Z,1850.62
2022-10-16T12:16:53.689Z,1591.88
2022-10-16T12:17:53.675Z,1670.62
2022-10-16T12:18:53.667Z,1670.62
2022-10-16T12:19:53.667Z,1687.50
2022-10-16T12:20:53.637Z,1749.38
2022-10-16T12:21:53.628Z,1783.12
2022-10-16T12:22:53.611Z,1676.25
2022-10-16T12:23:53.605Z,1575.00
2022-10-16T12:24:53.591Z,1434.38
2022-10-16T12:25:53.583Z,1575.00
2022-10-16T12:26:53.561Z,1158.75
2022-10-16T12:27:53.554Z,450.00
2022-10-16T12:28:53.661Z,461.25
2022-10-16T12:29:53.566Z,849.38
2022-10-16T12:30:53.508Z,1248.75
2022-10-16T12:31:58.449Z,1490.62
2022-10-16T12:32:53.912Z,1687.50
2022-10-16T12:33:53.472Z,1693.12
2022-10-16T12:34:53.455Z,1575.00
2022-10-16T12:35:53.450Z,1597.50
2022-10-16T12:36:53.436Z,1530.00
2022-10-16T12:37:53.432Z,1586.25
2022-10-16T12:38:53.410Z,1687.50
2022-10-16T12:39:53.406Z,1620.00
2022-10-16T12:40:53.387Z,1552.50
2022-10-16T12:41:53.376Z,1293.75
2022-10-16T12:42:53.361Z,1305.00
2022-10-16T12:43:53.345Z,1102.50
2022-10-16T12:44:53.339Z,1389.38
2022-10-16T12:45:53.347Z,1411.88
2022-10-16T12:46:53.318Z,1406.25
2022-10-16T12:47:53.304Z,1440.00
2022-10-16T12:49:06.673Z,1153.12
2022-10-16T12:49:54.306Z,1203.75